Terminal Aerodrome Forecast
Issued by NWS

Home | Current Version | Previous Version | Text Only | Print | Product List | Glossary On
Versions: 1 2 3 4 5 6 7 8 9 10 11 12 13 14 15 16
656
FTUS43 KMPX 021125
TAFAXN
TAF
KAXN 021125Z 0212/0312 34006KT P6SM OVC016
     FM021800 31007KT P6SM OVC025
     FM030400 VRB03KT P6SM OVC020=

USA.gov is the U.S. government's official web portal to all federal, state and local government web resources and services.